Time;durP1;ratioP1;P1;durP2;ratioP2;P2;SDS_P1;SDS_P2;PMS_P1;PMS_P2;Temp;Humidity;BMP_temperature;BMP_pressure;BME280_temperature;BME280_humidity;BME280_pressure;Samples;Min_cycle;Max_cycle;Signal;HPM_P1;HPM_P2
2021/04/09 00:01:35;;;;;;;6.53;4.93;;;;;;;1.41;66.36;95760.72;5027714;28;20018;-79
2021/04/09 00:04:01;;;;;;;6.13;5.20;;;;;;;1.39;66.20;95754.91;5010397;28;20045;-79
2021/04/09 00:06:27;;;;;;;6.65;5.65;;;;;;;1.36;66.17;95744.09;5010218;28;20038;-77
2021/04/09 00:08:52;;;;;;;8.25;5.32;;;;;;;1.33;66.37;95742.69;5010188;28;20034;-77
2021/04/09 00:11:17;;;;;;;7.80;5.60;;;;;;;1.42;66.54;95751.03;5010465;28;20038;-78
2021/04/09 00:13:43;;;;;;;7.88;5.32;;;;;;;1.29;66.21;95734.53;5012360;28;20464;-81
2021/04/09 00:16:09;;;;;;;6.57;5.20;;;;;;;1.34;66.49;95728.59;5010623;28;20097;-78
2021/04/09 00:18:34;;;;;;;5.93;5.00;;;;;;;1.48;66.27;95747.47;5025784;28;20034;-80
2021/04/09 00:21:00;;;;;;;10.20;4.93;;;;;;;1.44;66.34;95736.66;5025703;28;20057;-78
2021/04/09 00:23:25;;;;;;;5.43;4.88;;;;;;;1.45;66.25;95733.00;5010321;28;20034;-79
2021/04/09 00:25:51;;;;;;;6.43;4.85;;;;;;;1.41;65.97;95728.47;5027412;28;20065;-80
2021/04/09 00:28:16;;;;;;;6.22;5.63;;;;;;;1.43;66.09;95732.44;5010093;28;20037;-80
2021/04/09 00:30:41;;;;;;;7.80;4.20;;;;;;;1.46;66.23;95729.34;5010292;28;20029;-78
2021/04/09 00:33:07;;;;;;;6.30;4.50;;;;;;;1.43;65.70;95714.06;5010302;28;20104;-78
2021/04/09 00:35:32;;;;;;;6.30;4.63;;;;;;;1.53;65.65;95731.84;5010786;28;20048;-80
2021/04/09 00:37:57;;;;;;;6.50;4.70;;;;;;;1.52;66.01;95731.03;5010225;28;20388;-79
2021/04/09 00:40:23;;;;;;;7.32;4.38;;;;;;;1.51;66.11;95731.28;5027855;28;20029;-79
2021/04/09 00:42:49;;;;;;;7.90;4.82;;;;;;;1.41;65.79;95712.72;5010424;28;20403;-80
2021/04/09 00:45:15;;;;;;;5.13;4.43;;;;;;;1.43;66.13;95718.53;5010163;28;20115;-79
2021/04/09 00:47:42;;;;;;;6.78;4.60;;;;;;;1.32;65.54;95699.19;5010361;28;20096;-80
2021/04/09 00:50:08;;;;;;;6.28;4.93;;;;;;;1.47;65.85;95725.69;5024686;28;20030;-80
2021/04/09 00:52:35;;;;;;;7.35;4.68;;;;;;;1.39;66.02;95712.97;5012352;28;20156;-79
2021/04/09 00:55:02;;;;;;;5.00;4.30;;;;;;;1.48;65.74;95722.03;5010411;28;20068;-79
2021/04/09 00:57:28;;;;;;;5.72;4.15;;;;;;;1.39;65.94;95702.50;5010297;28;20172;-79
2021/04/09 00:59:54;;;;;;;5.72;4.00;;;;;;;1.48;65.75;95716.81;5010190;28;20034;-79
2021/04/09 01:02:19;;;;;;;6.75;4.60;;;;;;;1.49;65.56;95713.19;5027376;28;20034;-79
2021/04/09 01:04:45;;;;;;;8.48;4.43;;;;;;;1.41;65.62;95692.56;5015842;28;20037;-80
2021/04/09 01:07:10;;;;;;;5.28;4.18;;;;;;;1.42;65.48;95696.75;5013976;28;20137;-79
2021/04/09 01:09:36;;;;;;;8.55;4.15;;;;;;;1.38;65.38;95693.00;5013794;28;20037;-81
2021/04/09 01:12:03;;;;;;;13.50;4.68;;;;;;;1.32;65.58;95680.84;5013514;28;20049;-79
2021/04/09 01:14:28;;;;;;;10.27;4.28;;;;;;;1.38;65.63;95690.38;5013737;28;20050;-79
2021/04/09 01:17:05;;;;;;;6.57;4.00;;;;;;;1.46;65.57;95692.66;5013585;28;20030;-79
2021/04/09 01:20:01;;;;;;;6.22;3.55;;;;;;;1.46;65.35;95694.47;5015651;28;20029;-79
2021/04/09 01:22:39;;;;;;;4.72;3.53;;;;;;;1.45;65.24;95690.28;5014104;28;20042;-78
2021/04/09 01:25:34;;;;;;;3.72;3.03;;;;;;;1.46;65.40;95690.03;5028343;28;20064;-78
2021/04/09 01:28:12;;;;;;;6.10;3.60;;;;;;;1.30;65.27;95667.19;5005191;28;20561;-80
2021/04/09 01:30:59;;;;;;;4.93;3.70;;;;;;;1.43;64.97;95682.63;5028665;28;20034;-78
2021/04/09 01:33:47;;;;;;;6.50;3.70;;;;;;;1.37;65.16;95682.75;5013319;28;20060;-81
2021/04/09 01:36:16;;;;;;;6.40;3.65;;;;;;;1.38;64.89;95679.91;5028534;28;20037;-80
2021/04/09 01:38:44;;;;;;;4.03;3.20;;;;;;;1.33;65.15;95677.19;5013238;28;20034;-80
2021/04/09 01:41:12;;;;;;;5.20;3.47;;;;;;;1.28;64.96;95669.25;5011754;28;20083;-81
2021/04/09 01:43:40;;;;;;;5.18;3.40;;;;;;;1.33;65.02;95671.94;5013861;28;20026;-80
2021/04/09 01:46:07;;;;;;;7.57;3.72;;;;;;;1.26;65.19;95664.22;5013404;28;20050;-80
2021/04/09 01:48:36;;;;;;;3.28;2.97;;;;;;;1.31;65.02;95666.16;5013189;28;20061;-80
2021/04/09 01:51:02;;;;;;;4.60;3.20;;;;;;;1.30;65.16;95667.19;5012483;28;20034;-80
2021/04/09 01:53:29;;;;;;;6.45;3.03;;;;;;;1.30;64.82;95675.84;5012533;28;20041;-80
2021/04/09 01:55:58;;;;;;;4.30;3.15;;;;;;;1.32;64.93;95667.72;5028299;28;20029;-83
2021/04/09 01:58:25;;;;;;;5.53;3.53;;;;;;;1.24;64.99;95657.63;5013424;28;20021;-79
2021/04/09 02:00:51;;;;;;;3.97;3.25;;;;;;;1.28;64.72;95664.81;5011953;28;20034;-78
2021/04/09 02:03:22;;;;;;;6.90;3.10;;;;;;;1.30;64.61;95659.31;5012514;28;20077;-80
2021/04/09 02:05:51;;;;;;;6.63;3.55;;;;;;;1.23;64.69;95646.34;5012924;28;20042;-78
2021/04/09 02:08:18;;;;;;;5.47;3.38;;;;;;;1.27;64.40;95655.31;5012791;28;20049;-79
2021/04/09 02:10:57;;;;;;;4.35;3.00;;;;;;;1.29;64.39;95660.34;5014796;28;20025;-81
2021/04/09 02:13:25;;;;;;;5.63;3.22;;;;;;;1.26;64.26;95660.81;5010787;28;20042;-79
2021/04/09 02:15:54;;;;;;;3.78;2.83;;;;;;;1.22;64.41;95649.19;5012471;28;20104;-80
2021/04/09 02:18:20;;;;;;;6.68;2.92;;;;;;;1.20;64.17;95653.88;5011934;28;20124;-79
2021/04/09 02:20:45;;;;;;;7.35;4.00;;;;;;;1.16;63.70;95647.50;5011432;28;20072;-77
2021/04/09 02:23:11;;;;;;;5.53;2.75;;;;;;;1.20;63.93;95656.50;5011559;28;20058;-78
2021/04/09 02:25:37;;;;;;;5.38;2.88;;;;;;;1.15;64.07;95638.84;5014181;28;20030;-78
2021/04/09 02:28:03;;;;;;;4.15;2.88;;;;;;;1.11;64.17;95636.91;5027522;28;20042;-79
2021/04/09 02:30:28;;;;;;;5.70;3.22;;;;;;;1.15;64.20;95640.69;5011109;28;20030;-78
2021/04/09 02:32:53;;;;;;;4.53;2.47;;;;;;;1.15;64.48;95646.72;5011982;28;20083;-78
2021/04/09 02:35:20;;;;;;;6.07;3.13;;;;;;;1.14;63.84;95641.72;5027982;28;20038;-80
2021/04/09 02:37:48;;;;;;;3.58;2.60;;;;;;;1.07;63.66;95630.53;5014036;28;20026;-78
2021/04/09 02:40:17;;;;;;;4.45;2.72;;;;;;;1.06;63.92;95634.19;5012207;28;20038;-79
2021/04/09 02:42:48;;;;;;;5.32;3.33;;;;;;;1.05;63.84;95636.03;5012130;28;20121;-78
2021/04/09 02:45:15;;;;;;;7.40;3.60;;;;;;;1.00;64.15;95636.72;5012194;28;20034;-79
2021/04/09 02:47:43;;;;;;;3.10;2.80;;;;;;;1.01;64.31;95638.31;5011794;28;20124;-79
2021/04/09 02:50:30;;;;;;;6.50;2.95;;;;;;;1.00;64.08;95636.72;5011904;28;20033;-78
2021/04/09 02:53:01;;;;;;;5.65;2.83;;;;;;;0.96;64.13;95632.97;5011832;28;20076;-79
2021/04/09 02:55:31;;;;;;;3.15;2.78;;;;;;;0.83;63.97;95614.91;5013860;28;20037;-79
2021/04/09 02:57:59;;;;;;;7.68;3.00;;;;;;;0.82;64.22;95615.94;5027092;28;20052;-78
2021/04/09 03:00:25;;;;;;;7.55;3.45;;;;;;;0.89;64.45;95628.88;5012097;28;20069;-79
2021/04/09 03:02:52;;;;;;;4.22;3.00;;;;;;;0.76;64.24;95614.22;5011818;28;20113;-78
2021/04/09 03:05:19;;;;;;;6.22;3.17;;;;;;;0.73;64.44;95607.63;5012033;28;20026;-78
2021/04/09 03:07:45;;;;;;;3.33;2.75;;;;;;;0.74;64.40;95621.50;5013686;28;20018;-79
2021/04/09 03:10:14;;;;;;;5.85;3.40;;;;;;;0.80;64.44;95617.97;5011916;28;20095;-78
2021/04/09 03:12:40;;;;;;;7.22;3.28;;;;;;;0.70;64.50;95610.69;5011883;28;20030;-79
2021/04/09 03:15:08;;;;;;;7.07;3.40;;;;;;;0.43;64.54;95570.34;5012014;28;20037;-79
2021/04/09 03:17:37;;;;;;;6.18;3.47;;;;;;;0.74;64.73;95621.50;5011510;28;20570;-79
2021/04/09 03:20:05;;;;;;;10.98;3.63;;;;;;;0.73;64.65;95623.34;5026946;28;20030;-80
2021/04/09 03:22:30;;;;;;;6.10;3.60;;;;;;;0.66;64.78;95617.41;5013418;28;20091;-79
2021/04/09 03:24:55;;;;;;;8.65;3.80;;;;;;;0.58;64.83;95609.13;5026466;28;20045;-79
2021/04/09 03:27:21;;;;;;;7.30;3.38;;;;;;;0.55;64.92;95617.41;5026876;28;20081;-79
2021/04/09 03:29:46;;;;;;;5.38;2.85;;;;;;;0.49;65.18;95600.81;5011489;28;20038;-79
2021/04/09 03:32:16;;;;;;;5.50;3.65;;;;;;;0.55;65.17;95604.34;5011308;28;20026;-81
2021/04/09 03:34:41;;;;;;;6.22;3.70;;;;;;;0.51;64.89;95604.81;5013746;28;20018;-79
2021/04/09 03:37:07;;;;;;;6.72;3.78;;;;;;;0.58;65.00;95623.00;5011304;28;20045;-79
2021/04/09 03:39:33;;;;;;;5.68;3.45;;;;;;;0.54;65.29;95614.00;5011410;28;20030;-79
2021/04/09 03:41:58;;;;;;;4.28;3.78;;;;;;;0.41;65.42;95595.91;5010027;28;20107;-80
2021/04/09 03:44:24;;;;;;;6.85;3.90;;;;;;;0.47;65.88;95608.13;5011041;28;20100;-78
2021/04/09 03:46:49;;;;;;;5.10;3.40;;;;;;;0.44;65.82;95619.81;5013007;28;20503;-79
2021/04/09 03:49:14;;;;;;;5.75;3.38;;;;;;;0.39;65.63;95603.22;5010288;28;20030;-79
2021/04/09 03:51:40;;;;;;;4.60;3.17;;;;;;;0.41;65.75;95612.44;5025242;28;20030;-81
2021/04/09 03:54:05;;;;;;;4.45;3.28;;;;;;;0.41;65.67;95617.69;5010526;28;20042;-82
2021/04/09 03:56:31;;;;;;;5.18;3.53;;;;;;;0.30;65.69;95597.50;5011086;28;20060;-80
2021/04/09 03:58:56;;;;;;;11.20;3.65;;;;;;;0.35;66.03;95604.69;5010773;28;20037;-80
2021/04/09 04:01:26;;;;;;;7.78;3.58;;;;;;;0.41;65.70;95611.63;5012746;28;20058;-81
2021/04/09 04:03:51;;;;;;;8.13;3.63;;;;;;;0.31;65.99;95601.75;5011199;28;20034;-80
2021/04/09 04:06:16;;;;;;;4.55;2.90;;;;;;;0.34;66.22;95606.50;5026443;28;20412;-79
2021/04/09 04:08:42;;;;;;;5.38;3.05;;;;;;;0.30;65.85;95604.56;5010914;28;20480;-80
2021/04/09 04:11:07;;;;;;;4.40;2.83;;;;;;;0.32;65.65;95605.94;5025479;28;20505;-78
2021/04/09 04:13:32;;;;;;;4.75;3.33;;;;;;;0.29;66.04;95589.91;5027562;28;20554;-80
2021/04/09 04:15:58;;;;;;;5.18;3.15;;;;;;;0.29;65.77;95601.16;5011102;28;20396;-80
2021/04/09 04:18:23;;;;;;;8.93;3.72;;;;;;;0.33;65.85;95602.31;5010750;28;20423;-80
2021/04/09 04:20:48;;;;;;;5.10;3.10;;;;;;;0.35;65.64;95607.31;5011024;28;20038;-79
2021/04/09 04:23:14;;;;;;;8.25;3.55;;;;;;;0.25;65.39;95587.72;5010635;28;20046;-79
2021/04/09 04:25:39;;;;;;;8.65;2.97;;;;;;;0.30;65.41;95605.38;5012438;28;20036;-79
2021/04/09 04:28:04;;;;;;;4.78;3.10;;;;;;;0.33;65.51;95601.50;5010542;28;20037;-78
2021/04/09 04:30:30;;;;;;;5.03;3.13;;;;;;;0.32;65.84;95598.09;5010838;28;20034;-79
2021/04/09 04:32:55;;;;;;;4.85;3.35;;;;;;;0.26;65.56;95593.78;5025926;28;20041;-80
2021/04/09 04:35:21;;;;;;;8.70;3.90;;;;;;;0.30;65.59;95594.09;5010691;28;20045;-78
2021/04/09 04:37:46;;;;;;;7.28;3.08;;;;;;;0.24;65.56;95586.13;5015740;28;20033;-78
2021/04/09 04:40:12;;;;;;;8.70;2.90;;;;;;;0.28;65.43;95588.31;5014473;28;20037;-80
2021/04/09 04:42:37;;;;;;;4.53;3.03;;;;;;;0.28;65.19;95581.25;5013154;28;20049;-79
2021/04/09 04:45:04;;;;;;;7.10;2.70;;;;;;;0.27;65.10;95582.28;5029867;28;20041;-79
2021/04/09 04:47:29;;;;;;;5.45;2.90;;;;;;;0.45;65.30;95597.84;5014251;28;20037;-79
2021/04/09 04:49:54;;;;;;;4.38;2.75;;;;;;;0.43;64.89;95589.44;5030146;28;20025;-79
2021/04/09 04:52:20;;;;;;;4.82;2.53;;;;;;;0.38;64.61;95570.22;5016121;28;20037;-80
2021/04/09 04:54:45;;;;;;;6.55;2.55;;;;;;;0.60;64.45;95604.44;5014180;28;20049;-77
2021/04/09 04:57:10;;;;;;;6.75;2.63;;;;;;;0.64;64.60;95589.88;5029139;28;20120;-78
2021/04/09 04:59:36;;;;;;;4.70;2.45;;;;;;;0.67;64.56;95589.44;5014094;28;20065;-81
2021/04/09 05:02:01;;;;;;;4.43;2.50;;;;;;;0.72;64.09;95586.91;5013630;28;20026;-79
2021/04/09 05:04:27;;;;;;;8.30;2.33;;;;;;;0.75;63.82;95583.81;5031294;28;20037;-79
2021/04/09 05:06:52;;;;;;;5.50;1.80;;;;;;;0.80;63.35;95583.13;5013737;28;20042;-80
2021/04/09 05:09:17;;;;;;;6.00;2.58;;;;;;;0.99;62.80;95602.91;5013872;28;20034;-79
2021/04/09 05:11:52;;;;;;;8.30;2.20;;;;;;;1.08;62.59;95603.34;5011558;28;20029;-78
2021/04/09 05:14:20;;;;;;;14.90;2.78;;;;;;;1.08;62.21;95596.28;5013875;28;20042;-79
2021/04/09 05:16:46;;;;;;;5.57;2.45;;;;;;;1.17;61.75;95599.31;5015744;28;20026;-78
2021/04/09 05:19:11;;;;;;;9.60;2.05;;;;;;;1.19;61.65;95581.53;5013899;28;20038;-79
2021/04/09 05:21:38;;;;;;;5.13;1.95;;;;;;;1.41;61.09;95610.50;5029035;28;20046;-79
2021/04/09 05:24:04;;;;;;;7.82;1.83;;;;;;;1.51;60.67;95613.31;5014208;28;20125;-79
2021/04/09 05:26:30;;;;;;;8.38;2.13;;;;;;;1.50;60.20;95594.16;5013636;28;20042;-81
2021/04/09 05:29:02;;;;;;;5.63;2.13;;;;;;;1.72;59.67;95601.34;5013811;28;20045;-80
2021/04/09 05:31:28;;;;;;;8.27;3.10;;;;;;;1.73;59.60;95581.94;5030827;28;20474;-74
2021/04/09 05:33:53;;;;;;;10.02;3.60;;;;;;;1.88;59.24;95594.53;5013300;28;20083;-80
2021/04/09 05:36:18;;;;;;;33.25;4.53;;;;;;;2.03;58.97;95595.56;5013403;28;20038;-78
2021/04/09 05:38:44;;;;;;;13.23;3.60;;;;;;;2.03;58.47;95577.19;5013401;28;20129;-78
2021/04/09 05:41:09;;;;;;;15.88;6.32;;;;;;;2.36;58.16;95601.06;5012717;28;20022;-67
2021/04/09 05:43:34;;;;;;;13.15;3.85;;;;;;;2.47;57.55;95592.28;5030579;28;20168;-71
2021/04/09 05:46:00;;;;;;;10.48;2.47;;;;;;;2.54;57.18;95577.94;5012611;28;20050;-72
2021/04/09 05:48:25;;;;;;;9.93;2.60;;;;;;;2.72;56.54;95590.00;5004958;28;20093;-73
2021/04/09 05:50:51;;;;;;;7.93;2.28;;;;;;;2.92;56.20;95578.97;4989423;28;20108;-73
2021/04/09 05:53:17;;;;;;;9.00;2.15;;;;;;;3.06;54.83;95580.16;4992665;28;20034;-72
2021/04/09 05:55:42;;;;;;;8.45;1.83;;;;;;;3.25;54.39;95579.84;4994354;28;20045;-72
2021/04/09 05:58:07;;;;;;;13.25;2.20;;;;;;;3.46;54.28;95588.75;4992327;28;20039;-74
2021/04/09 06:00:33;;;;;;;8.00;1.92;;;;;;;3.55;52.99;95580.16;4992627;28;20436;-74
2021/04/09 06:02:58;;;;;;;5.55;1.58;;;;;;;3.67;51.41;95587.09;4992563;28;20404;-73
2021/04/09 06:05:23;;;;;;;6.32;1.42;;;;;;;3.86;50.84;95583.06;4992768;28;20088;-74
2021/04/09 06:07:49;;;;;;;5.18;1.42;;;;;;;4.03;51.24;95589.00;4994208;28;20030;-73
2021/04/09 06:10:15;;;;;;;4.18;1.42;;;;;;;4.06;49.57;95591.13;5007477;28;20109;-74
2021/04/09 06:12:41;;;;;;;4.18;1.30;;;;;;;4.24;50.29;95581.25;4992086;28;20097;-74
2021/04/09 06:15:08;;;;;;;7.90;1.45;;;;;;;4.35;50.46;95578.44;4992324;28;20097;-74
2021/04/09 06:17:34;;;;;;;4.80;1.58;;;;;;;4.53;47.80;95590.41;4992112;28;20034;-75
2021/04/09 06:19:59;;;;;;;2.95;1.20;;;;;;;4.75;47.64;95585.00;4992143;28;20085;-76
2021/04/09 06:22:25;;;;;;;3.95;1.83;;;;;;;4.96;47.27;95588.50;4994091;28;20022;-75
2021/04/09 06:24:50;;;;;;;6.57;2.00;;;;;;;5.11;47.59;95574.59;4992042;28;20049;-74
2021/04/09 06:27:15;;;;;;;4.05;1.30;;;;;;;5.25;46.03;95577.56;4991674;28;20074;-72
2021/04/09 06:29:42;;;;;;;6.32;1.90;;;;;;;5.44;46.44;95566.28;4992259;28;20045;-73
2021/04/09 06:32:08;;;;;;;10.65;1.73;;;;;;;5.61;45.63;95565.25;5006828;28;20387;-73
2021/04/09 06:34:33;;;;;;;4.03;1.40;;;;;;;5.82;45.40;95569.50;4993936;28;20038;-74
2021/04/09 06:36:58;;;;;;;7.85;1.55;;;;;;;5.90;45.65;95561.06;4991655;28;20042;-73
2021/04/09 06:39:24;;;;;;;5.30;1.58;;;;;;;6.09;43.65;95571.94;4991514;28;20088;-74
2021/04/09 06:41:49;;;;;;;4.55;1.52;;;;;;;6.31;43.72;95576.13;4991523;28;20099;-74
2021/04/09 06:44:16;;;;;;;6.22;1.70;;;;;;;6.50;44.22;95574.53;4991725;28;20038;-74
2021/04/09 06:46:42;;;;;;;9.45;1.67;;;;;;;6.57;42.79;95569.75;4992491;28;20056;-83
2021/04/09 06:49:07;;;;;;;5.50;1.67;;;;;;;6.68;42.46;95563.38;4991149;28;20513;-74
2021/04/09 06:51:34;;;;;;;3.20;1.35;;;;;;;6.89;42.80;95574.69;4991906;28;20040;-74
2021/04/09 06:54:01;;;;;;;4.68;1.50;;;;;;;6.95;42.10;95559.59;4992177;28;20026;-77
2021/04/09 06:56:29;;;;;;;10.75;1.38;;;;;;;7.15;41.52;95572.75;4992724;28;20046;-79
2021/04/09 06:58:56;;;;;;;5.72;1.40;;;;;;;7.24;41.37;95567.69;4990974;28;20030;-81
2021/04/09 07:01:23;;;;;;;5.20;1.40;;;;;;;7.22;40.19;95561.88;4994219;28;20022;-79
2021/04/09 07:03:50;;;;;;;5.45;1.20;;;;;;;7.37;40.67;95555.69;4992755;28;20041;-79
2021/04/09 07:06:15;;;;;;;5.80;1.13;;;;;;;7.35;40.35;95548.03;5007337;28;20161;-80
2021/04/09 07:08:43;;;;;;;3.28;1.20;;;;;;;7.41;38.21;95554.88;5008239;28;20113;-80
2021/04/09 07:11:09;;;;;;;10.43;1.90;;;;;;;7.59;39.33;95557.97;5037300;28;20030;-74
2021/04/09 07:13:51;;;;;;;4.95;1.90;;;;;;;7.55;39.12;95547.94;5023888;28;20431;-69
2021/04/09 07:16:17;;;;;;;4.10;1.13;;;;;;;7.69;38.37;95558.69;5013124;28;20133;-71
2021/04/09 07:18:53;;;;;;;5.28;1.27;;;;;;;7.79;37.71;95545.41;5010768;28;20038;-78
2021/04/09 07:21:59;;;;;;;3.28;1.30;;;;;;;7.85;37.16;95554.09;5010731;28;20057;-80
2021/04/09 07:24:25;;;;;;;3.67;1.20;;;;;;;7.87;36.58;95549.28;5002416;28;20041;-76
2021/04/09 07:26:52;;;;;;;2.33;1.10;;;;;;;8.03;36.63;95549.97;5011397;28;20030;-77
2021/04/09 07:29:35;;;;;;;4.55;1.35;;;;;;;8.19;36.58;95551.44;5026211;28;20124;-71
2021/04/09 07:32:06;;;;;;;3.90;1.10;;;;;;;8.38;36.85;95551.56;5011129;28;20022;-77
2021/04/09 07:34:52;;;;;;;7.40;1.48;;;;;;;8.49;35.42;95550.38;5012884;28;20033;-78
2021/04/09 07:37:19;;;;;;;4.97;1.42;;;;;;;8.57;35.22;95541.03;5009405;28;20103;-76
2021/04/09 07:39:44;;;;;;;5.05;1.20;;;;;;;8.72;36.03;95526.84;5010945;28;20041;-83
2021/04/09 07:42:12;;;;;;;3.05;1.30;;;;;;;8.82;35.90;95540.78;5010963;28;20033;-68
2021/04/09 07:44:39;;;;;;;5.68;1.25;;;;;;;9.05;35.58;95538.38;5010343;28;20071;-76
2021/04/09 07:47:11;;;;;;;5.82;1.40;;;;;;;9.23;34.98;95539.50;5009970;28;20423;-68
2021/04/09 07:49:38;;;;;;;8.20;1.83;;;;;;;9.35;34.77;95542.53;5012137;28;20702;-73
2021/04/09 07:52:14;;;;;;;2.92;1.08;;;;;;;9.48;33.35;95535.72;5009037;28;20767;-73
2021/04/09 07:54:40;;;;;;;1.42;1.10;;;;;;;9.58;33.25;95536.38;5022085;23;20575;-63
2021/04/09 07:57:07;;;;;;;6.43;1.17;;;;;;;9.72;33.43;95527.66;5009668;28;20241;-63
2021/04/09 07:59:45;;;;;;;8.02;1.23;;;;;;;9.87;32.91;95536.19;5010115;28;20036;-63
2021/04/09 08:02:11;;;;;;;2.67;1.10;;;;;;;10.10;32.14;95544.38;4990270;28;20153;-61
2021/04/09 08:04:37;;;;;;;2.15;1.50;;;;;;;10.17;30.27;95542.13;4992044;28;20480;-60
2021/04/09 08:07:02;;;;;;;2.20;1.17;;;;;;;10.43;30.84;95531.06;4990125;28;20053;-60
2021/04/09 08:09:46;;;;;;;2.88;1.30;;;;;;;10.47;27.95;95522.22;4990348;28;20129;-60
2021/04/09 08:12:27;;;;;;;1.85;1.10;;;;;;;10.38;25.36;95521.31;4990120;28;20036;-59
2021/04/09 08:14:54;;;;;;;3.13;1.30;;;;;;;10.91;26.07;95518.22;4990398;28;20507;-60
2021/04/09 08:17:21;;;;;;;2.05;1.30;;;;;;;10.97;27.55;95501.06;4989979;28;20042;-60
2021/04/09 08:19:53;;;;;;;2.10;1.15;;;;;;;11.16;26.35;95522.25;4991728;28;20480;-60
2021/04/09 08:22:19;;;;;;;2.08;1.25;;;;;;;10.88;25.18;95513.47;4990020;28;20042;-60
2021/04/09 08:24:46;;;;;;;3.35;1.25;;;;;;;11.40;25.92;95532.66;4989982;28;20066;-61
2021/04/09 08:27:12;;;;;;;1.50;1.20;;;;;;;11.26;24.83;95524.72;5004814;28;20141;-59
2021/04/09 08:29:40;;;;;;;2.83;1.10;;;;;;;11.06;24.78;95503.81;4990075;28;20504;-60
2021/04/09 08:32:06;;;;;;;3.72;1.40;;;;;;;11.58;24.95;95533.63;4989869;28;20468;-59
2021/04/09 08:34:33;;;;;;;3.60;1.30;;;;;;;11.56;25.26;95527.78;4991973;28;20035;-59
2021/04/09 08:36:59;;;;;;;1.98;1.25;;;;;;;11.75;25.65;95506.31;4989901;28;20031;-59
2021/04/09 08:39:24;;;;;;;1.65;0.88;;;;;;;11.70;25.21;95515.22;4990022;28;20030;-59
2021/04/09 08:41:50;;;;;;;3.95;1.48;;;;;;;11.76;26.19;95490.03;4989833;28;20133;-60
2021/04/09 08:44:16;;;;;;;2.80;0.98;;;;;;;11.80;25.16;95522.97;4989798;28;20042;-61
2021/04/09 08:46:42;;;;;;;2.15;0.98;;;;;;;11.41;25.31;95519.06;4991771;28;20121;-61
2021/04/09 08:49:09;;;;;;;3.80;1.55;;;;;;;11.32;24.56;95515.53;4990100;28;20217;-59
2021/04/09 08:51:39;;;;;;;2.47;1.10;;;;;;;11.62;25.81;95500.75;4989245;28;20046;-59
2021/04/09 08:54:28;;;;;;;3.03;1.20;;;;;;;12.13;24.81;95514.75;4989521;28;20480;-59
2021/04/09 08:56:54;;;;;;;2.22;1.33;;;;;;;12.34;25.62;95505.19;4989722;28;20120;-59
2021/04/09 08:59:37;;;;;;;5.88;1.38;;;;;;;12.28;24.67;95511.72;4989873;28;20485;-60
2021/04/09 09:02:15;;;;;;;4.95;0.95;;;;;;;12.54;25.18;95503.88;4989578;28;20026;-60
2021/04/09 09:04:40;;;;;;;2.72;1.27;;;;;;;12.81;24.79;95496.75;4991549;28;20038;-59
2021/04/09 09:07:06;;;;;;;2.05;1.27;;;;;;;12.75;24.51;95504.91;4989732;28;20031;-59
2021/04/09 09:09:33;;;;;;;2.13;1.23;;;;;;;12.31;23.86;95505.00;4989656;28;20030;-60
2021/04/09 09:12:02;;;;;;;1.98;1.42;;;;;;;12.87;24.36;95508.88;4989683;28;20049;-60
2021/04/09 09:14:33;;;;;;;4.57;1.45;;;;;;;12.91;24.20;95512.50;4989929;28;20436;-61
2021/04/09 09:17:22;;;;;;;1.98;1.20;;;;;;;13.27;23.59;95504.28;4989687;28;20030;-61
2021/04/09 09:20:02;;;;;;;3.30;1.17;;;;;;;13.30;23.37;95502.88;4990231;28;20061;-61
2021/04/09 09:22:27;;;;;;;2.45;1.30;;;;;;;13.07;22.71;95496.84;4990918;28;20404;-61
2021/04/09 09:25:13;;;;;;;1.92;1.20;;;;;;;13.05;22.78;95501.69;5008199;28;20034;-62
2021/04/09 09:27:50;;;;;;;2.05;1.42;;;;;;;13.08;23.11;95490.41;4992649;28;20100;-59
2021/04/09 09:30:30;;;;;;;1.77;1.10;;;;;;;13.34;22.35;95498.47;4992899;28;20599;-61
2021/04/09 09:33:28;;;;;;;2.20;1.40;;;;;;;13.71;22.57;95484.50;5007965;28;20035;-59
2021/04/09 09:35:54;;;;;;;4.15;1.60;;;;;;;13.99;22.98;95492.22;4991389;28;20046;-61
2021/04/09 09:38:46;;;;;;;3.25;1.45;;;;;;;13.93;22.91;95480.91;4992807;28;20089;-60
2021/04/09 09:41:32;;;;;;;2.78;1.80;;;;;;;14.17;23.17;95484.94;4992161;28;20034;-66
2021/04/09 09:43:58;;;;;;;2.38;1.45;;;;;;;14.15;22.73;95453.16;4992897;28;20075;-63
2021/04/09 09:46:53;;;;;;;2.60;1.80;;;;;;;13.75;21.57;95465.97;5009646;28;20464;-63
2021/04/09 09:49:23;;;;;;;3.05;1.88;;;;;;;14.20;22.73;95465.59;5008068;28;20053;-64
2021/04/09 09:51:49;;;;;;;3.53;1.60;;;;;;;14.03;22.36;95461.06;5007103;28;20030;-63
2021/04/09 09:54:30;;;;;;;3.22;1.60;;;;;;;14.34;21.36;95455.47;4992211;28;20046;-61
2021/04/09 09:56:57;;;;;;;6.95;1.65;;;;;;;14.59;21.83;95461.06;4992377;28;20046;-63
2021/04/09 09:59:27;;;;;;;2.20;1.20;;;;;;;14.24;21.05;95455.81;4992617;28;20488;-63
2021/04/09 10:01:58;;;;;;;3.13;1.55;;;;;;;14.40;20.67;95443.50;5008021;28;20197;-64
2021/04/09 10:04:25;;;;;;;2.40;1.50;;;;;;;14.75;21.64;95432.69;4993491;28;20535;-64
2021/04/09 10:06:52;;;;;;;5.03;1.70;;;;;;;14.11;22.61;95446.09;4991963;28;20038;-62
2021/04/09 10:09:26;;;;;;;4.38;1.48;;;;;;;14.65;22.71;95441.84;4992275;28;20101;-63
2021/04/09 10:11:51;;;;;;;2.50;1.13;;;;;;;14.72;22.67;95418.03;4990465;28;20050;-62
2021/04/09 10:14:17;;;;;;;2.58;1.30;;;;;;;14.87;22.14;95431.97;4992098;28;20065;-62
2021/04/09 10:16:42;;;;;;;1.63;1.30;;;;;;;14.60;21.88;95393.06;4993795;28;20116;-62
2021/04/09 10:19:08;;;;;;;2.75;1.30;;;;;;;14.48;20.67;95410.56;4992192;28;20516;-62
2021/04/09 10:21:36;;;;;;;2.97;1.10;;;;;;;14.98;21.63;95385.72;4991432;28;20054;-61
2021/04/09 10:24:12;;;;;;;2.03;1.30;;;;;;;15.16;20.81;95393.66;4991931;28;20563;-62
2021/04/09 10:26:43;;;;;;;3.38;1.35;;;;;;;15.22;20.72;95400.41;4990639;28;20050;-61
2021/04/09 10:29:21;;;;;;;5.23;1.50;;;;;;;15.20;19.43;95405.28;4990673;28;20136;-62
2021/04/09 10:31:47;;;;;;;3.67;1.05;;;;;;;15.16;20.29;95391.00;4993665;28;20022;-63
2021/04/09 10:34:12;;;;;;;1.45;1.13;;;;;;;15.58;19.70;95395.22;5005911;28;20034;-62
2021/04/09 10:36:37;;;;;;;2.75;1.08;;;;;;;15.83;19.07;95393.44;4991750;28;20070;-62
2021/04/09 10:39:15;;;;;;;3.17;1.30;;;;;;;15.92;19.72;95385.31;4991518;28;20500;-62
2021/04/09 10:41:43;;;;;;;1.98;1.15;;;;;;;15.79;19.88;95352.28;4991499;28;20085;-62
2021/04/09 10:44:13;;;;;;;2.40;1.20;;;;;;;15.64;18.00;95385.09;4991487;28;20042;-63
2021/04/09 10:46:44;;;;;;;3.42;1.13;;;;;;;14.78;18.04;95389.94;4993515;28;20057;-63
2021/04/09 10:49:14;;;;;;;4.55;1.77;;;;;;;15.83;18.94;95369.28;4991468;28;20083;-62
2021/04/09 10:51:51;;;;;;;1.70;1.38;;;;;;;14.34;18.30;95359.16;4990809;28;20038;-62
2021/04/09 10:54:19;;;;;;;8.27;1.27;;;;;;;14.50;18.60;95380.81;4991416;28;20038;-62
2021/04/09 10:56:52;;;;;;;1.98;1.15;;;;;;;15.26;17.76;95387.91;4991163;28;20047;-63
2021/04/09 10:59:18;;;;;;;3.22;1.20;;;;;;;15.12;18.36;95376.66;4991434;28;20056;-62
2021/04/09 11:01:44;;;;;;;2.78;1.23;;;;;;;14.86;19.77;95358.88;4992963;28;20034;-62
2021/04/09 11:04:16;;;;;;;3.67;1.20;;;;;;;15.22;18.91;95387.78;4991360;28;20117;-62
2021/04/09 11:06:57;;;;;;;1.98;1.00;;;;;;;15.00;18.52;95370.13;4991076;28;20552;-62
2021/04/09 11:09:47;;;;;;;1.83;1.00;;;;;;;15.22;18.45;95374.38;4991419;28;20035;-63
2021/04/09 11:12:18;;;;;;;1.30;0.90;;;;;;;16.05;19.32;95370.78;4990958;28;20050;-63
2021/04/09 11:14:44;;;;;;;2.70;1.48;;;;;;;16.29;18.39;95348.56;4990916;28;20042;-64
2021/04/09 11:17:10;;;;;;;1.50;1.30;;;;;;;16.68;18.06;95337.47;4990049;28;20018;-64
2021/04/09 11:19:37;;;;;;;4.20;1.35;;;;;;;17.40;18.80;95354.56;4992528;28;20034;-64
2021/04/09 11:22:07;;;;;;;2.70;0.90;;;;;;;18.09;18.13;95361.44;4989163;28;20046;-63
2021/04/09 11:24:35;;;;;;;2.67;1.02;;;;;;;18.69;18.06;95342.53;4990929;28;20449;-63
2021/04/09 11:27:20;;;;;;;2.65;1.00;;;;;;;19.41;17.66;95351.00;4990617;28;20104;-63
2021/04/09 11:29:46;;;;;;;3.38;1.20;;;;;;;19.81;17.36;95322.06;5005702;28;20046;-63
2021/04/09 11:32:15;;;;;;;1.77;1.08;;;;;;;20.37;16.16;95338.50;4989345;28;20350;-64
2021/04/09 11:34:43;;;;;;;1.67;1.10;;;;;;;20.58;16.04;95324.56;4992821;28;20030;-63
2021/04/09 11:37:10;;;;;;;6.63;1.15;;;;;;;17.78;17.13;95337.97;4990530;28;20042;-63
2021/04/09 11:39:48;;;;;;;2.70;1.08;;;;;;;17.72;17.17;95330.47;5005486;28;20436;-64
2021/04/09 11:42:13;;;;;;;2.13;1.30;;;;;;;17.17;17.22;95305.16;4989091;28;20064;-64
2021/04/09 11:44:40;;;;;;;4.05;1.13;;;;;;;17.51;17.23;95326.09;5005388;28;20042;-63
2021/04/09 11:47:19;;;;;;;2.20;1.08;;;;;;;17.96;16.96;95313.41;4990250;28;20030;-63